sensor_id;sensor_type;location;lat;lon;timestamp;P1;durP1;ratioP1;P2;durP2;ratioP2
20653;SDS011;21083;50.898;4.902;2023-07-16T00:01:02;7.68;;;2.00;;
20653;SDS011;21083;50.898;4.902;2023-07-16T00:03:29;11.80;;;2.75;;
20653;SDS011;21083;50.898;4.902;2023-07-16T00:05:56;9.18;;;2.20;;
20653;SDS011;21083;50.898;4.902;2023-07-16T00:08:24;10.25;;;2.20;;
20653;SDS011;21083;50.898;4.902;2023-07-16T00:10:51;13.82;;;2.88;;
20653;SDS011;21083;50.898;4.902;2023-07-16T00:13:17;9.93;;;2.75;;
20653;SDS011;21083;50.898;4.902;2023-07-16T00:15:44;19.33;;;3.40;;
20653;SDS011;21083;50.898;4.902;2023-07-16T00:18:11;10.43;;;2.47;;
20653;SDS011;21083;50.898;4.902;2023-07-16T00:20:38;9.32;;;2.40;;
20653;SDS011;21083;50.898;4.902;2023-07-16T00:23:05;10.50;;;2.75;;
20653;SDS011;21083;50.898;4.902;2023-07-16T00:25:33;13.18;;;3.28;;
20653;SDS011;21083;50.898;4.902;2023-07-16T00:28:00;9.52;;;2.10;;
20653;SDS011;21083;50.898;4.902;2023-07-16T00:30:27;12.80;;;2.10;;
20653;SDS011;21083;50.898;4.902;2023-07-16T00:32:54;16.73;;;3.80;;
20653;SDS011;21083;50.898;4.902;2023-07-16T00:35:21;17.80;;;2.80;;
20653;SDS011;21083;50.898;4.902;2023-07-16T00:37:48;16.05;;;2.80;;
20653;SDS011;21083;50.898;4.902;2023-07-16T00:40:15;12.10;;;2.50;;
20653;SDS011;21083;50.898;4.902;2023-07-16T00:42:43;15.70;;;2.72;;
20653;SDS011;21083;50.898;4.902;2023-07-16T00:45:11;21.15;;;3.38;;
20653;SDS011;21083;50.898;4.902;2023-07-16T00:47:40;21.80;;;3.10;;
20653;SDS011;21083;50.898;4.902;2023-07-16T00:50:08;17.55;;;2.92;;
20653;SDS011;21083;50.898;4.902;2023-07-16T00:52:36;13.25;;;2.05;;
20653;SDS011;21083;50.898;4.902;2023-07-16T00:55:03;13.27;;;2.88;;
20653;SDS011;21083;50.898;4.902;2023-07-16T00:57:32;19.30;;;2.45;;
20653;SDS011;21083;50.898;4.902;2023-07-16T01:00:01;14.13;;;3.63;;
20653;SDS011;21083;50.898;4.902;2023-07-16T01:02:29;10.20;;;2.38;;
20653;SDS011;21083;50.898;4.902;2023-07-16T01:04:56;16.10;;;2.45;;
20653;SDS011;21083;50.898;4.902;2023-07-16T01:07:23;16.17;;;2.53;;
20653;SDS011;21083;50.898;4.902;2023-07-16T01:09:53;14.93;;;3.00;;
20653;SDS011;21083;50.898;4.902;2023-07-16T01:12:21;11.02;;;2.45;;
20653;SDS011;21083;50.898;4.902;2023-07-16T01:14:49;11.90;;;2.17;;
20653;SDS011;21083;50.898;4.902;2023-07-16T01:17:19;12.70;;;2.63;;
20653;SDS011;21083;50.898;4.902;2023-07-16T01:19:46;19.85;;;2.95;;
20653;SDS011;21083;50.898;4.902;2023-07-16T01:22:18;11.65;;;2.80;;
20653;SDS011;21083;50.898;4.902;2023-07-16T01:25:10;14.85;;;2.55;;
20653;SDS011;21083;50.898;4.902;2023-07-16T01:27:58;10.27;;;2.47;;
20653;SDS011;21083;50.898;4.902;2023-07-16T01:30:34;18.90;;;2.67;;
20653;SDS011;21083;50.898;4.902;2023-07-16T01:33:03;15.05;;;2.78;;
20653;SDS011;21083;50.898;4.902;2023-07-16T01:35:31;15.80;;;2.97;;
20653;SDS011;21083;50.898;4.902;2023-07-16T01:37:59;11.20;;;2.50;;
20653;SDS011;21083;50.898;4.902;2023-07-16T01:40:26;18.10;;;2.75;;
20653;SDS011;21083;50.898;4.902;2023-07-16T01:42:53;13.30;;;2.90;;
20653;SDS011;21083;50.898;4.902;2023-07-16T01:45:20;12.57;;;3.45;;
20653;SDS011;21083;50.898;4.902;2023-07-16T01:47:52;18.55;;;3.70;;
20653;SDS011;21083;50.898;4.902;2023-07-16T01:50:26;25.45;;;4.03;;
20653;SDS011;21083;50.898;4.902;2023-07-16T01:52:53;20.85;;;3.03;;
20653;SDS011;21083;50.898;4.902;2023-07-16T01:55:20;18.52;;;2.95;;
20653;SDS011;21083;50.898;4.902;2023-07-16T01:57:46;14.38;;;2.95;;
20653;SDS011;21083;50.898;4.902;2023-07-16T02:00:13;16.30;;;2.58;;
20653;SDS011;21083;50.898;4.902;2023-07-16T02:02:40;15.18;;;2.78;;
20653;SDS011;21083;50.898;4.902;2023-07-16T02:05:08;16.75;;;3.03;;
20653;SDS011;21083;50.898;4.902;2023-07-16T02:07:35;17.90;;;3.42;;
20653;SDS011;21083;50.898;4.902;2023-07-16T02:10:02;25.48;;;3.47;;
20653;SDS011;21083;50.898;4.902;2023-07-16T02:12:29;17.33;;;3.10;;
20653;SDS011;21083;50.898;4.902;2023-07-16T02:14:56;14.90;;;3.88;;
20653;SDS011;21083;50.898;4.902;2023-07-16T02:17:23;17.25;;;2.92;;
20653;SDS011;21083;50.898;4.902;2023-07-16T02:19:50;19.98;;;3.30;;
20653;SDS011;21083;50.898;4.902;2023-07-16T02:22:18;11.10;;;2.80;;
20653;SDS011;21083;50.898;4.902;2023-07-16T02:24:45;16.42;;;3.20;;
20653;SDS011;21083;50.898;4.902;2023-07-16T02:27:12;14.13;;;2.97;;
20653;SDS011;21083;50.898;4.902;2023-07-16T02:29:39;16.05;;;3.05;;
20653;SDS011;21083;50.898;4.902;2023-07-16T02:32:06;16.42;;;2.90;;
20653;SDS011;21083;50.898;4.902;2023-07-16T02:34:33;14.75;;;3.05;;
20653;SDS011;21083;50.898;4.902;2023-07-16T02:37:00;14.20;;;3.13;;
20653;SDS011;21083;50.898;4.902;2023-07-16T02:39:28;10.48;;;2.90;;
20653;SDS011;21083;50.898;4.902;2023-07-16T02:41:55;18.20;;;3.92;;
20653;SDS011;21083;50.898;4.902;2023-07-16T02:44:22;16.48;;;3.85;;
20653;SDS011;21083;50.898;4.902;2023-07-16T02:46:49;13.57;;;3.45;;
20653;SDS011;21083;50.898;4.902;2023-07-16T02:49:16;13.70;;;3.90;;
20653;SDS011;21083;50.898;4.902;2023-07-16T02:51:43;14.07;;;3.67;;
20653;SDS011;21083;50.898;4.902;2023-07-16T02:54:09;20.65;;;3.72;;
20653;SDS011;21083;50.898;4.902;2023-07-16T02:56:38;11.35;;;3.65;;
20653;SDS011;21083;50.898;4.902;2023-07-16T02:59:04;13.75;;;4.00;;
20653;SDS011;21083;50.898;4.902;2023-07-16T03:01:31;22.20;;;3.50;;
20653;SDS011;21083;50.898;4.902;2023-07-16T03:03:58;17.85;;;4.28;;
20653;SDS011;21083;50.898;4.902;2023-07-16T03:06:25;15.65;;;3.55;;
20653;SDS011;21083;50.898;4.902;2023-07-16T03:08:52;19.73;;;4.32;;
20653;SDS011;21083;50.898;4.902;2023-07-16T03:11:18;16.35;;;3.67;;
20653;SDS011;21083;50.898;4.902;2023-07-16T03:13:47;17.30;;;3.72;;
20653;SDS011;21083;50.898;4.902;2023-07-16T03:16:13;18.60;;;4.60;;
20653;SDS011;21083;50.898;4.902;2023-07-16T03:18:40;18.27;;;3.83;;
20653;SDS011;21083;50.898;4.902;2023-07-16T03:21:07;17.42;;;4.10;;
20653;SDS011;21083;50.898;4.902;2023-07-16T03:23:34;14.52;;;3.38;;
20653;SDS011;21083;50.898;4.902;2023-07-16T03:26:01;13.70;;;4.05;;
20653;SDS011;21083;50.898;4.902;2023-07-16T03:28:28;11.30;;;2.95;;
20653;SDS011;21083;50.898;4.902;2023-07-16T03:30:56;18.90;;;4.03;;
20653;SDS011;21083;50.898;4.902;2023-07-16T03:33:23;15.55;;;3.90;;
20653;SDS011;21083;50.898;4.902;2023-07-16T03:35:49;12.73;;;3.70;;
20653;SDS011;21083;50.898;4.902;2023-07-16T03:38:16;13.02;;;4.38;;
20653;SDS011;21083;50.898;4.902;2023-07-16T03:40:45;17.88;;;4.32;;
20653;SDS011;21083;50.898;4.902;2023-07-16T03:43:13;16.85;;;4.30;;
20653;SDS011;21083;50.898;4.902;2023-07-16T03:45:40;19.25;;;3.95;;
20653;SDS011;21083;50.898;4.902;2023-07-16T03:48:08;16.25;;;4.32;;
20653;SDS011;21083;50.898;4.902;2023-07-16T03:50:35;14.52;;;4.30;;
20653;SDS011;21083;50.898;4.902;2023-07-16T03:53:02;17.52;;;3.90;;
20653;SDS011;21083;50.898;4.902;2023-07-16T03:55:29;20.60;;;4.20;;
20653;SDS011;21083;50.898;4.902;2023-07-16T03:57:56;16.10;;;4.28;;
20653;SDS011;21083;50.898;4.902;2023-07-16T04:00:23;13.63;;;4.13;;
20653;SDS011;21083;50.898;4.902;2023-07-16T04:02:49;18.48;;;4.30;;
20653;SDS011;21083;50.898;4.902;2023-07-16T04:05:18;19.30;;;4.13;;
20653;SDS011;21083;50.898;4.902;2023-07-16T04:07:45;19.70;;;4.28;;
20653;SDS011;21083;50.898;4.902;2023-07-16T04:10:12;20.35;;;4.20;;
20653;SDS011;21083;50.898;4.902;2023-07-16T04:12:39;18.02;;;4.35;;
20653;SDS011;21083;50.898;4.902;2023-07-16T04:15:07;17.23;;;4.25;;
20653;SDS011;21083;50.898;4.902;2023-07-16T04:17:35;15.65;;;4.32;;
20653;SDS011;21083;50.898;4.902;2023-07-16T04:20:02;16.83;;;5.00;;
20653;SDS011;21083;50.898;4.902;2023-07-16T04:22:32;15.30;;;4.82;;
20653;SDS011;21083;50.898;4.902;2023-07-16T04:24:59;17.85;;;4.30;;
20653;SDS011;21083;50.898;4.902;2023-07-16T04:27:26;18.27;;;5.03;;
20653;SDS011;21083;50.898;4.902;2023-07-16T04:29:53;18.25;;;5.72;;
20653;SDS011;21083;50.898;4.902;2023-07-16T04:32:20;23.58;;;5.40;;
20653;SDS011;21083;50.898;4.902;2023-07-16T04:34:47;20.60;;;5.32;;
20653;SDS011;21083;50.898;4.902;2023-07-16T04:37:14;19.13;;;6.53;;
20653;SDS011;21083;50.898;4.902;2023-07-16T04:39:42;12.45;;;4.18;;
20653;SDS011;21083;50.898;4.902;2023-07-16T04:42:09;14.27;;;4.55;;
20653;SDS011;21083;50.898;4.902;2023-07-16T04:44:36;13.30;;;4.82;;
20653;SDS011;21083;50.898;4.902;2023-07-16T04:47:03;15.70;;;4.93;;
20653;SDS011;21083;50.898;4.902;2023-07-16T04:49:31;15.32;;;5.05;;
20653;SDS011;21083;50.898;4.902;2023-07-16T04:51:59;14.18;;;4.75;;
20653;SDS011;21083;50.898;4.902;2023-07-16T04:54:26;21.33;;;5.82;;
20653;SDS011;21083;50.898;4.902;2023-07-16T04:56:54;23.73;;;6.18;;
20653;SDS011;21083;50.898;4.902;2023-07-16T04:59:21;15.18;;;4.90;;
20653;SDS011;21083;50.898;4.902;2023-07-16T05:01:48;14.93;;;5.30;;
20653;SDS011;21083;50.898;4.902;2023-07-16T05:04:15;16.20;;;5.40;;
20653;SDS011;21083;50.898;4.902;2023-07-16T05:06:42;16.45;;;5.18;;
20653;SDS011;21083;50.898;4.902;2023-07-16T05:09:08;22.05;;;5.95;;
20653;SDS011;21083;50.898;4.902;2023-07-16T05:11:35;21.77;;;5.85;;
20653;SDS011;21083;50.898;4.902;2023-07-16T05:14:04;15.57;;;5.70;;
20653;SDS011;21083;50.898;4.902;2023-07-16T05:16:31;18.17;;;5.32;;
20653;SDS011;21083;50.898;4.902;2023-07-16T05:18:58;17.98;;;6.13;;
20653;SDS011;21083;50.898;4.902;2023-07-16T05:21:25;15.90;;;5.85;;
20653;SDS011;21083;50.898;4.902;2023-07-16T05:23:52;21.50;;;6.25;;
20653;SDS011;21083;50.898;4.902;2023-07-16T05:26:18;13.20;;;5.70;;
20653;SDS011;21083;50.898;4.902;2023-07-16T05:28:45;19.65;;;6.25;;
20653;SDS011;21083;50.898;4.902;2023-07-16T05:31:13;15.02;;;5.03;;
20653;SDS011;21083;50.898;4.902;2023-07-16T05:33:40;20.42;;;6.93;;
20653;SDS011;21083;50.898;4.902;2023-07-16T05:36:07;16.95;;;5.82;;
20653;SDS011;21083;50.898;4.902;2023-07-16T05:38:34;19.00;;;6.10;;
20653;SDS011;21083;50.898;4.902;2023-07-16T05:41:01;16.75;;;5.80;;
20653;SDS011;21083;50.898;4.902;2023-07-16T05:43:29;21.25;;;6.68;;
20653;SDS011;21083;50.898;4.902;2023-07-16T05:45:56;21.25;;;5.90;;
20653;SDS011;21083;50.898;4.902;2023-07-16T05:48:25;24.75;;;6.63;;
20653;SDS011;21083;50.898;4.902;2023-07-16T05:50:51;20.92;;;6.68;;
20653;SDS011;21083;50.898;4.902;2023-07-16T05:53:18;17.13;;;6.10;;
20653;SDS011;21083;50.898;4.902;2023-07-16T05:55:45;19.73;;;6.53;;
20653;SDS011;21083;50.898;4.902;2023-07-16T05:58:14;25.42;;;7.05;;
20653;SDS011;21083;50.898;4.902;2023-07-16T06:00:41;16.13;;;6.00;;
20653;SDS011;21083;50.898;4.902;2023-07-16T06:03:08;24.55;;;6.03;;
20653;SDS011;21083;50.898;4.902;2023-07-16T06:05:36;19.00;;;6.47;;
20653;SDS011;21083;50.898;4.902;2023-07-16T06:08:03;17.88;;;6.78;;
20653;SDS011;21083;50.898;4.902;2023-07-16T06:10:30;16.42;;;5.68;;
20653;SDS011;21083;50.898;4.902;2023-07-16T06:13:00;21.83;;;6.53;;
20653;SDS011;21083;50.898;4.902;2023-07-16T06:15:26;21.20;;;6.40;;
20653;SDS011;21083;50.898;4.902;2023-07-16T06:17:53;20.83;;;6.65;;
20653;SDS011;21083;50.898;4.902;2023-07-16T06:20:20;14.45;;;6.57;;
20653;SDS011;21083;50.898;4.902;2023-07-16T06:22:48;18.10;;;6.75;;
20653;SDS011;21083;50.898;4.902;2023-07-16T06:25:15;17.23;;;7.45;;
20653;SDS011;21083;50.898;4.902;2023-07-16T06:27:42;19.95;;;7.18;;
20653;SDS011;21083;50.898;4.902;2023-07-16T06:30:09;17.45;;;6.90;;
20653;SDS011;21083;50.898;4.902;2023-07-16T06:32:36;17.25;;;6.95;;
20653;SDS011;21083;50.898;4.902;2023-07-16T06:35:03;15.55;;;6.55;;
20653;SDS011;21083;50.898;4.902;2023-07-16T06:37:30;21.33;;;6.97;;
20653;SDS011;21083;50.898;4.902;2023-07-16T06:39:58;18.88;;;6.47;;
20653;SDS011;21083;50.898;4.902;2023-07-16T06:42:25;23.10;;;7.25;;
20653;SDS011;21083;50.898;4.902;2023-07-16T06:44:52;16.20;;;6.72;;
20653;SDS011;21083;50.898;4.902;2023-07-16T06:47:19;23.77;;;7.63;;
20653;SDS011;21083;50.898;4.902;2023-07-16T06:49:46;16.42;;;6.38;;
20653;SDS011;21083;50.898;4.902;2023-07-16T06:52:19;20.35;;;7.13;;
20653;SDS011;21083;50.898;4.902;2023-07-16T06:54:46;21.00;;;7.60;;
20653;SDS011;21083;50.898;4.902;2023-07-16T06:57:14;17.50;;;6.53;;
20653;SDS011;21083;50.898;4.902;2023-07-16T06:59:41;18.58;;;6.95;;
20653;SDS011;21083;50.898;4.902;2023-07-16T07:02:08;16.40;;;7.05;;
20653;SDS011;21083;50.898;4.902;2023-07-16T07:04:35;21.70;;;7.32;;
20653;SDS011;21083;50.898;4.902;2023-07-16T07:07:02;21.10;;;7.35;;
20653;SDS011;21083;50.898;4.902;2023-07-16T07:09:29;21.17;;;6.50;;
20653;SDS011;21083;50.898;4.902;2023-07-16T07:11:56;24.75;;;6.82;;
20653;SDS011;21083;50.898;4.902;2023-07-16T07:14:24;18.42;;;6.70;;
20653;SDS011;21083;50.898;4.902;2023-07-16T07:16:51;17.92;;;6.63;;
20653;SDS011;21083;50.898;4.902;2023-07-16T07:19:18;19.75;;;6.82;;
20653;SDS011;21083;50.898;4.902;2023-07-16T07:21:45;25.23;;;7.65;;
20653;SDS011;21083;50.898;4.902;2023-07-16T07:24:12;17.35;;;6.18;;
20653;SDS011;21083;50.898;4.902;2023-07-16T07:26:39;22.92;;;6.72;;
20653;SDS011;21083;50.898;4.902;2023-07-16T07:29:06;19.35;;;6.93;;
20653;SDS011;21083;50.898;4.902;2023-07-16T07:31:34;22.13;;;7.50;;
20653;SDS011;21083;50.898;4.902;2023-07-16T07:34:01;16.50;;;6.78;;
20653;SDS011;21083;50.898;4.902;2023-07-16T07:36:28;15.30;;;6.38;;
20653;SDS011;21083;50.898;4.902;2023-07-16T07:38:55;16.80;;;6.03;;
20653;SDS011;21083;50.898;4.902;2023-07-16T07:41:22;16.95;;;5.53;;
20653;SDS011;21083;50.898;4.902;2023-07-16T07:43:49;15.88;;;6.95;;
20653;SDS011;21083;50.898;4.902;2023-07-16T07:46:15;18.08;;;6.57;;
20653;SDS011;21083;50.898;4.902;2023-07-16T07:48:45;22.70;;;5.78;;
20653;SDS011;21083;50.898;4.902;2023-07-16T07:51:12;20.02;;;6.55;;
20653;SDS011;21083;50.898;4.902;2023-07-16T07:53:39;23.92;;;7.05;;
20653;SDS011;21083;50.898;4.902;2023-07-16T07:56:06;19.63;;;6.85;;
20653;SDS011;21083;50.898;4.902;2023-07-16T07:58:33;18.38;;;5.80;;
20653;SDS011;21083;50.898;4.902;2023-07-16T08:01:03;16.73;;;6.00;;
20653;SDS011;21083;50.898;4.902;2023-07-16T08:03:30;18.00;;;6.22;;
20653;SDS011;21083;50.898;4.902;2023-07-16T08:05:59;30.55;;;6.63;;
20653;SDS011;21083;50.898;4.902;2023-07-16T08:08:26;17.00;;;5.43;;
20653;SDS011;21083;50.898;4.902;2023-07-16T08:10:53;17.73;;;5.78;;
20653;SDS011;21083;50.898;4.902;2023-07-16T08:13:21;18.67;;;5.65;;
20653;SDS011;21083;50.898;4.902;2023-07-16T08:15:47;16.30;;;5.25;;
20653;SDS011;21083;50.898;4.902;2023-07-16T08:18:14;18.20;;;6.10;;
20653;SDS011;21083;50.898;4.902;2023-07-16T08:20:41;16.08;;;5.78;;
20653;SDS011;21083;50.898;4.902;2023-07-16T08:23:09;21.02;;;5.43;;
20653;SDS011;21083;50.898;4.902;2023-07-16T08:25:36;14.65;;;6.40;;
20653;SDS011;21083;50.898;4.902;2023-07-16T08:28:03;16.52;;;5.70;;
20653;SDS011;21083;50.898;4.902;2023-07-16T08:30:31;15.43;;;4.97;;
20653;SDS011;21083;50.898;4.902;2023-07-16T08:32:59;14.23;;;5.22;;
20653;SDS011;21083;50.898;4.902;2023-07-16T08:35:26;21.92;;;6.03;;
20653;SDS011;21083;50.898;4.902;2023-07-16T08:37:52;22.85;;;5.85;;
20653;SDS011;21083;50.898;4.902;2023-07-16T08:40:21;14.27;;;5.25;;
20653;SDS011;21083;50.898;4.902;2023-07-16T08:42:48;17.38;;;5.60;;
20653;SDS011;21083;50.898;4.902;2023-07-16T08:45:15;22.75;;;5.72;;
20653;SDS011;21083;50.898;4.902;2023-07-16T08:47:43;14.55;;;4.63;;
20653;SDS011;21083;50.898;4.902;2023-07-16T08:50:10;12.70;;;4.45;;
20653;SDS011;21083;50.898;4.902;2023-07-16T08:52:37;14.63;;;5.03;;
20653;SDS011;21083;50.898;4.902;2023-07-16T08:55:06;15.43;;;4.90;;
20653;SDS011;21083;50.898;4.902;2023-07-16T08:57:35;15.45;;;4.57;;
20653;SDS011;21083;50.898;4.902;2023-07-16T09:00:03;13.77;;;4.70;;
20653;SDS011;21083;50.898;4.902;2023-07-16T09:02:31;14.63;;;4.75;;
20653;SDS011;21083;50.898;4.902;2023-07-16T09:04:59;17.50;;;5.18;;
20653;SDS011;21083;50.898;4.902;2023-07-16T09:07:27;12.18;;;4.57;;
20653;SDS011;21083;50.898;4.902;2023-07-16T09:09:55;13.13;;;4.38;;
20653;SDS011;21083;50.898;4.902;2023-07-16T09:12:25;14.55;;;4.93;;
20653;SDS011;21083;50.898;4.902;2023-07-16T09:14:53;12.68;;;3.97;;
20653;SDS011;21083;50.898;4.902;2023-07-16T09:17:21;13.48;;;4.38;;
20653;SDS011;21083;50.898;4.902;2023-07-16T09:19:49;12.57;;;4.30;;
20653;SDS011;21083;50.898;4.902;2023-07-16T09:22:16;17.10;;;4.68;;
20653;SDS011;21083;50.898;4.902;2023-07-16T09:24:44;19.42;;;4.28;;
20653;SDS011;21083;50.898;4.902;2023-07-16T09:27:12;14.13;;;4.00;;
20653;SDS011;21083;50.898;4.902;2023-07-16T09:29:39;13.57;;;4.50;;
20653;SDS011;21083;50.898;4.902;2023-07-16T09:32:08;12.13;;;4.38;;
20653;SDS011;21083;50.898;4.902;2023-07-16T09:34:35;11.80;;;4.25;;
20653;SDS011;21083;50.898;4.902;2023-07-16T09:37:03;12.45;;;4.60;;
20653;SDS011;21083;50.898;4.902;2023-07-16T09:39:31;15.98;;;4.38;;
20653;SDS011;21083;50.898;4.902;2023-07-16T09:41:59;30.42;;;5.07;;
20653;SDS011;21083;50.898;4.902;2023-07-16T09:44:28;14.30;;;4.30;;
20653;SDS011;21083;50.898;4.902;2023-07-16T09:46:56;17.25;;;4.05;;
20653;SDS011;21083;50.898;4.902;2023-07-16T09:49:26;13.30;;;4.32;;
20653;SDS011;21083;50.898;4.902;2023-07-16T09:51:55;12.80;;;3.85;;
20653;SDS011;21083;50.898;4.902;2023-07-16T09:54:24;14.18;;;4.53;;
20653;SDS011;21083;50.898;4.902;2023-07-16T09:56:52;16.00;;;4.38;;
20653;SDS011;21083;50.898;4.902;2023-07-16T09:59:24;13.27;;;4.20;;
20653;SDS011;21083;50.898;4.902;2023-07-16T10:01:54;13.50;;;4.30;;
20653;SDS011;21083;50.898;4.902;2023-07-16T10:04:21;11.95;;;3.95;;
20653;SDS011;21083;50.898;4.902;2023-07-16T10:06:53;13.13;;;4.10;;
20653;SDS011;21083;50.898;4.902;2023-07-16T10:09:34;14.73;;;4.20;;
20653;SDS011;21083;50.898;4.902;2023-07-16T10:12:12;12.90;;;4.45;;
20653;SDS011;21083;50.898;4.902;2023-07-16T10:14:40;16.02;;;4.40;;
20653;SDS011;21083;50.898;4.902;2023-07-16T10:17:11;21.42;;;4.75;;
20653;SDS011;21083;50.898;4.902;2023-07-16T10:19:51;16.30;;;4.82;;
20653;SDS011;21083;50.898;4.902;2023-07-16T10:22:36;17.95;;;4.15;;
20653;SDS011;21083;50.898;4.902;2023-07-16T10:25:07;13.52;;;4.30;;
20653;SDS011;21083;50.898;4.902;2023-07-16T10:27:35;15.60;;;4.18;;
20653;SDS011;21083;50.898;4.902;2023-07-16T10:30:03;15.77;;;4.82;;
20653;SDS011;21083;50.898;4.902;2023-07-16T10:32:32;14.73;;;4.55;;
20653;SDS011;21083;50.898;4.902;2023-07-16T10:35:00;14.98;;;4.65;;
20653;SDS011;21083;50.898;4.902;2023-07-16T10:37:28;14.68;;;4.25;;
20653;SDS011;21083;50.898;4.902;2023-07-16T10:39:57;13.90;;;4.78;;
20653;SDS011;21083;50.898;4.902;2023-07-16T10:42:25;13.85;;;4.07;;
20653;SDS011;21083;50.898;4.902;2023-07-16T10:44:53;15.23;;;4.63;;
20653;SDS011;21083;50.898;4.902;2023-07-16T10:47:23;13.48;;;4.38;;
20653;SDS011;21083;50.898;4.902;2023-07-16T10:49:51;16.38;;;3.97;;
20653;SDS011;21083;50.898;4.902;2023-07-16T10:52:20;12.95;;;3.92;;
20653;SDS011;21083;50.898;4.902;2023-07-16T10:54:48;11.70;;;3.95;;
20653;SDS011;21083;50.898;4.902;2023-07-16T10:57:16;16.92;;;4.70;;
20653;SDS011;21083;50.898;4.902;2023-07-16T10:59:44;15.20;;;4.75;;
20653;SDS011;21083;50.898;4.902;2023-07-16T11:02:13;15.27;;;3.85;;
20653;SDS011;21083;50.898;4.902;2023-07-16T11:04:41;11.45;;;4.30;;
20653;SDS011;21083;50.898;4.902;2023-07-16T11:07:09;15.07;;;4.35;;
20653;SDS011;21083;50.898;4.902;2023-07-16T11:09:42;12.68;;;4.13;;
20653;SDS011;21083;50.898;4.902;2023-07-16T11:12:11;11.73;;;4.30;;
20653;SDS011;21083;50.898;4.902;2023-07-16T11:14:39;12.82;;;4.20;;
20653;SDS011;21083;50.898;4.902;2023-07-16T11:17:09;13.40;;;3.47;;
20653;SDS011;21083;50.898;4.902;2023-07-16T11:19:36;15.35;;;3.97;;
20653;SDS011;21083;50.898;4.902;2023-07-16T11:22:04;14.25;;;4.13;;
20653;SDS011;21083;50.898;4.902;2023-07-16T11:24:36;15.82;;;5.07;;
20653;SDS011;21083;50.898;4.902;2023-07-16T11:27:06;13.70;;;4.20;;
20653;SDS011;21083;50.898;4.902;2023-07-16T11:29:40;14.02;;;4.15;;
20653;SDS011;21083;50.898;4.902;2023-07-16T11:32:10;18.00;;;4.53;;
20653;SDS011;21083;50.898;4.902;2023-07-16T11:34:37;12.57;;;3.72;;
20653;SDS011;21083;50.898;4.902;2023-07-16T11:37:08;11.32;;;4.05;;
20653;SDS011;21083;50.898;4.902;2023-07-16T11:39:36;12.90;;;4.90;;
20653;SDS011;21083;50.898;4.902;2023-07-16T11:42:03;12.75;;;4.22;;
20653;SDS011;21083;50.898;4.902;2023-07-16T11:44:32;14.50;;;3.88;;
20653;SDS011;21083;50.898;4.902;2023-07-16T11:47:01;14.30;;;3.53;;
20653;SDS011;21083;50.898;4.902;2023-07-16T11:49:28;17.02;;;4.03;;
20653;SDS011;21083;50.898;4.902;2023-07-16T11:51:56;11.80;;;4.50;;
20653;SDS011;21083;50.898;4.902;2023-07-16T11:54:23;11.43;;;4.00;;
20653;SDS011;21083;50.898;4.902;2023-07-16T11:56:50;11.63;;;3.97;;
20653;SDS011;21083;50.898;4.902;2023-07-16T11:59:18;11.75;;;3.35;;
20653;SDS011;21083;50.898;4.902;2023-07-16T12:01:47;11.60;;;4.10;;
20653;SDS011;21083;50.898;4.902;2023-07-16T12:04:15;14.40;;;4.32;;
20653;SDS011;21083;50.898;4.902;2023-07-16T12:06:42;14.35;;;3.92;;
20653;SDS011;21083;50.898;4.902;2023-07-16T12:09:09;10.68;;;3.67;;
20653;SDS011;21083;50.898;4.902;2023-07-16T12:11:36;14.13;;;4.13;;
20653;SDS011;21083;50.898;4.902;2023-07-16T12:14:04;10.90;;;3.65;;
20653;SDS011;21083;50.898;4.902;2023-07-16T12:16:32;11.43;;;3.65;;
20653;SDS011;21083;50.898;4.902;2023-07-16T12:18:59;16.80;;;3.97;;
20653;SDS011;21083;50.898;4.902;2023-07-16T12:21:26;13.10;;;4.05;;
20653;SDS011;21083;50.898;4.902;2023-07-16T12:23:53;8.38;;;3.25;;
20653;SDS011;21083;50.898;4.902;2023-07-16T12:26:20;11.02;;;3.88;;
20653;SDS011;21083;50.898;4.902;2023-07-16T12:28:47;10.52;;;3.90;;
20653;SDS011;21083;50.898;4.902;2023-07-16T12:31:14;13.00;;;4.00;;
20653;SDS011;21083;50.898;4.902;2023-07-16T12:33:43;16.55;;;3.83;;
20653;SDS011;21083;50.898;4.902;2023-07-16T12:36:10;11.13;;;3.58;;
20653;SDS011;21083;50.898;4.902;2023-07-16T12:38:37;10.60;;;3.45;;
20653;SDS011;21083;50.898;4.902;2023-07-16T12:41:04;9.85;;;3.10;;
20653;SDS011;21083;50.898;4.902;2023-07-16T12:43:31;13.07;;;3.80;;
20653;SDS011;21083;50.898;4.902;2023-07-16T12:45:59;11.95;;;3.58;;
20653;SDS011;21083;50.898;4.902;2023-07-16T12:48:27;11.75;;;3.70;;
20653;SDS011;21083;50.898;4.902;2023-07-16T12:50:57;9.63;;;3.47;;
20653;SDS011;21083;50.898;4.902;2023-07-16T12:53:24;10.70;;;3.47;;
20653;SDS011;21083;50.898;4.902;2023-07-16T12:55:52;9.98;;;2.97;;
20653;SDS011;21083;50.898;4.902;2023-07-16T12:58:19;11.60;;;3.28;;
20653;SDS011;21083;50.898;4.902;2023-07-16T13:00:46;12.35;;;4.10;;
20653;SDS011;21083;50.898;4.902;2023-07-16T13:03:13;11.55;;;3.75;;
20653;SDS011;21083;50.898;4.902;2023-07-16T13:05:42;11.80;;;3.30;;
20653;SDS011;21083;50.898;4.902;2023-07-16T13:08:11;9.75;;;3.28;;
20653;SDS011;21083;50.898;4.902;2023-07-16T13:10:38;13.18;;;3.35;;
20653;SDS011;21083;50.898;4.902;2023-07-16T13:13:07;11.23;;;3.33;;
20653;SDS011;21083;50.898;4.902;2023-07-16T13:15:34;8.48;;;3.25;;
20653;SDS011;21083;50.898;4.902;2023-07-16T13:18:01;11.77;;;3.78;;
20653;SDS011;21083;50.898;4.902;2023-07-16T13:20:28;11.60;;;3.60;;
20653;SDS011;21083;50.898;4.902;2023-07-16T13:22:56;12.57;;;3.35;;
20653;SDS011;21083;50.898;4.902;2023-07-16T13:25:24;12.70;;;3.53;;
20653;SDS011;21083;50.898;4.902;2023-07-16T13:27:54;13.68;;;3.58;;
20653;SDS011;21083;50.898;4.902;2023-07-16T13:30:21;10.15;;;3.67;;
20653;SDS011;21083;50.898;4.902;2023-07-16T13:32:48;8.93;;;3.15;;
20653;SDS011;21083;50.898;4.902;2023-07-16T13:35:15;9.18;;;3.20;;
20653;SDS011;21083;50.898;4.902;2023-07-16T13:37:42;10.82;;;3.60;;
20653;SDS011;21083;50.898;4.902;2023-07-16T13:40:11;10.15;;;3.05;;
20653;SDS011;21083;50.898;4.902;2023-07-16T13:42:39;11.63;;;3.92;;
20653;SDS011;21083;50.898;4.902;2023-07-16T13:45:07;12.93;;;3.83;;
20653;SDS011;21083;50.898;4.902;2023-07-16T13:47:34;9.27;;;3.75;;
20653;SDS011;21083;50.898;4.902;2023-07-16T13:50:01;9.30;;;3.40;;
20653;SDS011;21083;50.898;4.902;2023-07-16T13:52:28;11.35;;;3.67;;
20653;SDS011;21083;50.898;4.902;2023-07-16T13:54:55;12.63;;;3.63;;
20653;SDS011;21083;50.898;4.902;2023-07-16T13:57:22;11.05;;;4.13;;
20653;SDS011;21083;50.898;4.902;2023-07-16T13:59:50;7.15;;;3.00;;
20653;SDS011;21083;50.898;4.902;2023-07-16T14:02:17;8.95;;;3.00;;
20653;SDS011;21083;50.898;4.902;2023-07-16T14:04:44;12.90;;;3.38;;
20653;SDS011;21083;50.898;4.902;2023-07-16T14:07:11;9.82;;;3.20;;
20653;SDS011;21083;50.898;4.902;2023-07-16T14:09:38;10.93;;;3.28;;
20653;SDS011;21083;50.898;4.902;2023-07-16T14:12:05;9.48;;;3.05;;
20653;SDS011;21083;50.898;4.902;2023-07-16T14:14:32;9.20;;;2.75;;
20653;SDS011;21083;50.898;4.902;2023-07-16T14:17:00;7.65;;;2.72;;
20653;SDS011;21083;50.898;4.902;2023-07-16T14:19:28;8.48;;;3.20;;
20653;SDS011;21083;50.898;4.902;2023-07-16T14:21:56;15.73;;;3.20;;
20653;SDS011;21083;50.898;4.902;2023-07-16T14:24:22;10.15;;;2.90;;
20653;SDS011;21083;50.898;4.902;2023-07-16T14:26:49;10.75;;;3.13;;
20653;SDS011;21083;50.898;4.902;2023-07-16T14:29:16;9.48;;;2.80;;
20653;SDS011;21083;50.898;4.902;2023-07-16T14:31:43;11.48;;;3.33;;
20653;SDS011;21083;50.898;4.902;2023-07-16T14:34:11;10.10;;;3.25;;
20653;SDS011;21083;50.898;4.902;2023-07-16T14:36:40;7.80;;;3.17;;
20653;SDS011;21083;50.898;4.902;2023-07-16T14:39:07;12.85;;;3.17;;